Time;durP1;ratioP1;P1;durP2;ratioP2;P2;SDS_P1;SDS_P2;PMS_P1;PMS_P2;Temp;Humidity;BMP_temperature;BMP_pressure;BME280_temperature;BME280_humidity;BME280_pressure;Samples;Min_cycle;Max_cycle;Signal;HPM_P1;HPM_P2
2023/01/20 00:01:52;;;;;;;9.98;6.15;;;2.40;99.90;;;;;;5081951;28;20024;-43
2023/01/20 00:04:18;;;;;;;8.20;6.20;;;2.40;99.90;;;;;;5080523;28;20184;-43
2023/01/20 00:06:44;;;;;;;8.25;6.30;;;2.40;99.90;;;;;;5082455;28;20093;-43
2023/01/20 00:09:13;;;;;;;10.88;7.32;;;2.40;99.90;;;;;;5080752;28;20085;-43
2023/01/20 00:11:39;;;;;;;9.80;7.35;;;2.40;99.90;;;;;;5082645;28;20046;-44
2023/01/20 00:14:04;;;;;;;11.98;7.00;;;2.30;99.90;;;;;;5081336;28;20017;-43
2023/01/20 00:16:30;;;;;;;13.23;9.85;;;2.30;99.90;;;;;;5082303;28;20024;-43
2023/01/20 00:18:56;;;;;;;11.93;8.93;;;2.30;99.90;;;;;;5082749;28;20023;-43
2023/01/20 00:21:22;;;;;;;14.05;9.40;;;2.30;99.90;;;;;;5080923;28;20036;-42
2023/01/20 00:23:48;;;;;;;18.65;9.32;;;2.30;99.90;;;;;;5081673;28;20051;-42
2023/01/20 00:26:19;;;;;;;14.95;10.00;;;2.40;99.90;;;;;;5081229;28;20093;-43
2023/01/20 00:28:45;;;;;;;16.42;10.85;;;2.40;99.90;;;;;;5081599;28;20133;-44
2023/01/20 00:31:19;;;;;;;17.10;11.25;;;2.40;99.90;;;;;;5081217;28;20036;-42
2023/01/20 00:33:46;;;;;;;16.33;11.35;;;2.40;99.90;;;;;;5081656;28;20113;-42
2023/01/20 00:36:14;;;;;;;16.98;11.30;;;2.40;99.90;;;;;;5081146;28;20877;-43
2023/01/20 00:38:39;;;;;;;18.55;12.13;;;2.40;99.90;;;;;;5081227;28;20028;-42
2023/01/20 00:41:06;;;;;;;20.60;13.27;;;2.40;99.90;;;;;;5081516;28;20133;-44
2023/01/20 00:43:31;;;;;;;19.15;13.50;;;2.40;99.90;;;;;;5080897;28;20028;-44
2023/01/20 00:45:57;;;;;;;20.95;12.68;;;2.50;99.90;;;;;;5081682;28;20028;-42
2023/01/20 00:48:23;;;;;;;19.92;13.32;;;2.50;99.90;;;;;;5082616;28;20032;-42
2023/01/20 00:50:48;;;;;;;21.75;14.85;;;2.50;99.90;;;;;;5081031;28;20464;-43
2023/01/20 00:53:14;;;;;;;27.35;15.77;;;2.50;99.90;;;;;;5081803;28;20032;-43
2023/01/20 00:55:39;;;;;;;23.98;15.57;;;2.50;99.90;;;;;;5081768;28;20024;-44
2023/01/20 00:58:05;;;;;;;23.83;15.98;;;2.50;99.90;;;;;;5080854;28;20019;-42
2023/01/20 01:00:31;;;;;;;28.05;18.55;;;2.50;99.90;;;;;;5081015;28;20035;-43
2023/01/20 01:02:59;;;;;;;31.67;21.02;;;2.50;99.90;;;;;;5081142;28;20081;-43
2023/01/20 01:05:25;;;;;;;31.58;19.73;;;2.50;99.90;;;;;;5080402;28;20046;-43
2023/01/20 01:07:50;;;;;;;30.00;18.67;;;2.50;99.90;;;;;;5080976;28;20480;-43
2023/01/20 01:10:16;;;;;;;29.88;19.13;;;2.50;99.90;;;;;;5080617;28;20202;-43
2023/01/20 01:12:41;;;;;;;32.67;20.25;;;2.40;99.90;;;;;;5080693;28;20035;-42
2023/01/20 01:15:07;;;;;;;33.13;21.10;;;2.50;99.90;;;;;;5080986;28;20020;-42
2023/01/20 01:17:33;;;;;;;37.03;22.88;;;2.40;99.90;;;;;;5081374;28;20480;-44
2023/01/20 01:19:58;;;;;;;30.40;20.48;;;2.40;99.90;;;;;;5081026;28;20039;-43
2023/01/20 01:22:24;;;;;;;30.02;19.65;;;2.40;99.90;;;;;;5080740;28;20082;-42
2023/01/20 01:24:49;;;;;;;28.75;18.63;;;2.40;99.90;;;;;;5080403;28;20816;-42
2023/01/20 01:27:15;;;;;;;28.05;17.00;;;2.40;99.90;;;;;;5080362;28;20521;-43
2023/01/20 01:29:41;;;;;;;28.00;17.65;;;2.50;99.90;;;;;;5080525;28;20020;-43
2023/01/20 01:32:06;;;;;;;25.48;16.67;;;2.50;99.90;;;;;;5079849;28;20111;-44
2023/01/20 01:34:32;;;;;;;27.52;16.77;;;2.50;99.90;;;;;;5081576;28;20775;-44
2023/01/20 01:36:58;;;;;;;24.15;15.98;;;2.50;99.90;;;;;;5080493;28;20036;-43
2023/01/20 01:39:23;;;;;;;23.20;16.00;;;2.50;99.90;;;;;;5080400;28;20031;-42
2023/01/20 01:41:49;;;;;;;22.15;14.52;;;2.60;99.90;;;;;;5080454;28;20491;-42
2023/01/20 01:44:15;;;;;;;22.33;14.50;;;2.60;99.90;;;;;;5080191;28;20065;-42
2023/01/20 01:46:42;;;;;;;22.38;15.27;;;2.60;99.90;;;;;;5080167;28;20036;-43
2023/01/20 01:49:07;;;;;;;25.00;16.20;;;2.60;99.90;;;;;;5080194;28;20024;-43
2023/01/20 01:51:41;;;;;;;24.50;15.93;;;2.60;99.90;;;;;;5079962;28;20031;-43
2023/01/20 01:54:14;;;;;;;22.80;15.13;;;2.60;99.90;;;;;;5080225;28;20115;-44
2023/01/20 01:56:41;;;;;;;;;;;2.60;99.90;;;;;;5081643;28;20388;-44
2023/01/20 01:59:08;;;;;;;22.05;15.45;;;2.60;99.90;;;;;;5080966;28;19912;-42
2023/01/20 02:01:36;;;;;;;21.02;14.65;;;2.50;99.90;;;;;;5079220;28;20024;-43
2023/01/20 02:04:09;;;;;;;21.52;14.75;;;2.50;99.90;;;;;;5073134;28;20032;-41
2023/01/20 02:06:39;;;;;;;20.98;14.40;;;2.50;99.90;;;;;;5065939;28;20468;-44
2023/01/20 02:09:05;;;;;;;19.20;13.25;;;2.50;99.90;;;;;;5070363;28;20051;-43
2023/01/20 02:11:47;;;;;;;18.88;13.30;;;2.50;99.90;;;;;;5080728;28;20162;-43
2023/01/20 02:14:14;;;;;;;22.10;13.93;;;2.50;99.90;;;;;;5078893;28;20804;-43
2023/01/20 02:17:13;;;;;;;18.40;12.35;;;2.50;99.90;;;;;;5080447;28;20043;-44
2023/01/20 02:19:50;;;;;;;18.98;13.15;;;2.60;99.90;;;;;;5071503;28;20107;-43
2023/01/20 02:22:53;;;;;;;22.42;14.30;;;2.60;99.90;;;;;;5079293;28;20024;-44
2023/01/20 02:25:25;;;;;;;20.55;14.80;;;2.60;99.90;;;;;;5079988;28;20036;-43
2023/01/20 02:28:32;;;;;;;21.33;13.52;;;2.60;99.90;;;;;;5079065;28;20078;-44
2023/01/20 02:31:09;;;;;;;23.70;15.75;;;2.60;99.90;;;;;;5080084;28;20032;-43
2023/01/20 02:33:39;;;;;;;24.33;15.35;;;2.50;99.90;;;;;;5080326;28;20031;-43
2023/01/20 02:36:12;;;;;;;21.58;14.13;;;2.60;99.90;;;;;;5079304;28;20043;-43
2023/01/20 02:38:46;;;;;;;22.27;14.23;;;2.50;99.90;;;;;;5080310;28;20024;-43
2023/01/20 02:41:38;;;;;;;22.38;14.13;;;2.50;99.90;;;;;;5079397;28;20035;-43
2023/01/20 02:44:10;;;;;;;21.17;14.40;;;2.50;99.90;;;;;;5079289;28;20024;-43
2023/01/20 02:47:00;;;;;;;22.42;14.50;;;2.50;99.90;;;;;;5080225;28;20499;-43
2023/01/20 02:49:32;;;;;;;21.00;14.10;;;2.50;99.90;;;;;;5079336;28;20433;-44
2023/01/20 02:52:15;;;;;;;23.30;14.73;;;2.50;99.90;;;;;;5079950;28;20024;-44
2023/01/20 02:54:47;;;;;;;23.90;15.63;;;2.60;99.90;;;;;;5080188;28;20016;-44
2023/01/20 02:57:17;;;;;;;25.00;16.52;;;2.50;99.90;;;;;;5079544;28;20654;-42
2023/01/20 02:59:49;;;;;;;23.98;15.73;;;2.50;99.90;;;;;;5080435;28;20036;-43
2023/01/20 03:02:19;;;;;;;23.60;15.70;;;2.50;99.90;;;;;;5080210;28;20058;-43
2023/01/20 03:05:02;;;;;;;24.98;16.85;;;2.50;99.90;;;;;;5079162;28;20028;-42
2023/01/20 03:07:32;;;;;;;25.20;16.42;;;2.50;99.90;;;;;;5060076;28;20493;-42
2023/01/20 03:10:02;;;;;;;25.23;15.60;;;2.50;99.90;;;;;;5075027;28;20112;-43
2023/01/20 03:12:39;;;;;;;28.15;18.38;;;2.50;99.90;;;;;;5080466;28;20028;-43
2023/01/20 03:15:05;;;;;;;27.08;16.85;;;2.40;99.90;;;;;;5082749;28;20043;-43
2023/01/20 03:17:32;;;;;;;28.80;17.65;;;2.40;99.90;;;;;;5082911;28;20081;-42
2023/01/20 03:19:57;;;;;;;27.23;17.23;;;2.50;99.90;;;;;;5083457;28;20020;-43
2023/01/20 03:22:23;;;;;;;30.63;18.42;;;2.40;99.90;;;;;;5083465;28;20027;-42
2023/01/20 03:24:49;;;;;;;33.70;20.77;;;2.40;99.90;;;;;;5082793;28;20042;-44
2023/01/20 03:27:15;;;;;;;32.20;20.70;;;2.40;99.90;;;;;;5082947;28;20155;-43
2023/01/20 03:29:40;;;;;;;31.10;18.40;;;2.40;99.90;;;;;;5083167;28;20102;-42
2023/01/20 03:32:09;;;;;;;31.92;17.75;;;2.40;99.90;;;;;;5082671;28;20090;-42
2023/01/20 03:34:37;;;;;;;29.73;17.35;;;2.40;99.90;;;;;;5083533;28;20051;-44
2023/01/20 03:37:03;;;;;;;30.02;17.27;;;2.40;99.90;;;;;;5083632;28;20020;-43
2023/01/20 03:39:30;;;;;;;32.33;18.33;;;2.40;99.90;;;;;;5082956;28;20032;-43
2023/01/20 03:42:02;;;;;;;31.95;18.67;;;2.40;99.90;;;;;;5083775;28;20032;-43
2023/01/20 03:45:18;;;;;;;29.23;17.52;;;2.50;99.90;;;;;;5083788;28;20024;-44
2023/01/20 03:47:57;;;;;;;31.52;18.70;;;2.50;99.90;;;;;;5012202;28;20599;-43
2023/01/20 03:50:46;;;;;;;30.75;18.65;;;2.50;99.90;;;;;;5075102;28;20035;-44
2023/01/20 03:53:23;;;;;;;32.40;18.65;;;2.50;99.90;;;;;;5081764;28;20477;-42
2023/01/20 03:56:14;;;;;;;30.90;18.38;;;2.50;99.90;;;;;;5082514;28;20092;-43
2023/01/20 03:58:43;;;;;;;39.88;23.58;;;2.50;99.90;;;;;;5082814;28;20726;-46
2023/01/20 04:01:11;;;;;;;32.95;19.75;;;2.50;99.90;;;;;;5081583;28;20102;-45
2023/01/20 04:03:41;;;;;;;34.17;19.05;;;2.40;99.90;;;;;;5083258;28;20039;-43
2023/01/20 04:06:10;;;;;;;34.67;19.25;;;2.40;99.90;;;;;;5081886;28;20109;-43
2023/01/20 04:08:43;;;;;;;37.13;20.92;;;2.40;99.90;;;;;;5081746;28;20036;-43
2023/01/20 04:11:09;;;;;;;42.13;23.48;;;2.40;99.90;;;;;;5082532;28;20024;-43
2023/01/20 04:13:34;;;;;;;38.40;21.65;;;2.40;99.90;;;;;;5081781;28;20119;-43
2023/01/20 04:16:12;;;;;;;37.78;21.80;;;2.30;99.90;;;;;;5081595;28;20024;-44
2023/01/20 04:18:41;;;;;;;38.72;21.77;;;2.30;99.90;;;;;;5082816;28;20620;-43
2023/01/20 04:21:13;;;;;;;36.65;21.27;;;2.40;99.90;;;;;;5081591;28;20080;-43
2023/01/20 04:23:50;;;;;;;38.55;21.13;;;2.40;99.90;;;;;;5071602;28;20161;-43
2023/01/20 04:26:15;;;;;;;42.35;22.52;;;2.40;99.90;;;;;;5081773;28;20020;-43
2023/01/20 04:28:41;;;;;;;48.50;24.98;;;2.40;99.90;;;;;;5081483;28;20420;-44
2023/01/20 04:31:06;;;;;;;41.80;21.23;;;2.30;99.90;;;;;;5082217;28;20023;-42
2023/01/20 04:33:36;;;;;;;42.30;22.98;;;2.30;99.90;;;;;;5081975;28;20056;-43
2023/01/20 04:36:02;;;;;;;36.45;20.63;;;2.30;99.90;;;;;;5081397;28;20061;-43
2023/01/20 04:38:27;;;;;;;42.63;22.40;;;2.30;99.90;;;;;;5082218;28;20822;-42
2023/01/20 04:40:53;;;;;;;41.80;21.50;;;2.40;99.90;;;;;;5082288;28;20455;-43
2023/01/20 04:43:18;;;;;;;38.95;20.70;;;2.30;99.90;;;;;;5080601;28;20024;-42
2023/01/20 04:45:44;;;;;;;37.50;20.13;;;2.30;99.90;;;;;;5081946;28;20688;-44
2023/01/20 04:48:09;;;;;;;33.58;19.23;;;2.40;99.90;;;;;;5080809;28;20475;-43
2023/01/20 04:50:39;;;;;;;35.78;19.08;;;2.40;99.90;;;;;;5081429;28;20054;-42
2023/01/20 04:53:04;;;;;;;36.00;18.50;;;2.40;99.90;;;;;;5080804;28;20107;-42
2023/01/20 04:55:31;;;;;;;36.20;19.40;;;2.40;99.90;;;;;;5081706;28;20028;-43
2023/01/20 04:57:57;;;;;;;35.35;19.00;;;2.40;99.90;;;;;;5080750;28;20031;-43
2023/01/20 05:00:22;;;;;;;34.97;18.77;;;2.40;99.90;;;;;;5080783;28;20028;-43
2023/01/20 05:02:48;;;;;;;33.65;18.13;;;2.50;99.90;;;;;;5080641;28;20135;-42
2023/01/20 05:05:14;;;;;;;38.30;20.27;;;2.50;99.90;;;;;;5080615;28;20123;-42
2023/01/20 05:07:39;;;;;;;35.47;18.67;;;2.50;99.90;;;;;;5081227;28;20032;-44
2023/01/20 05:10:05;;;;;;;35.22;18.77;;;2.50;99.90;;;;;;5080404;28;20020;-43
2023/01/20 05:12:31;;;;;;;37.00;19.90;;;2.50;99.90;;;;;;5081382;28;20819;-44
2023/01/20 05:14:56;;;;;;;34.25;18.55;;;2.50;99.90;;;;;;5080931;28;20020;-44
2023/01/20 05:17:22;;;;;;;33.88;17.63;;;2.50;99.90;;;;;;5080299;28;20046;-43
2023/01/20 05:19:48;;;;;;;35.47;18.25;;;2.50;99.90;;;;;;5081616;28;20086;-43
2023/01/20 05:22:13;;;;;;;32.05;17.85;;;2.50;99.90;;;;;;5081056;28;20028;-43
2023/01/20 05:24:39;;;;;;;29.98;16.75;;;2.50;99.90;;;;;;5080810;28;20028;-42
2023/01/20 05:27:04;;;;;;;29.23;16.65;;;2.50;99.90;;;;;;5080848;28;20036;-43
2023/01/20 05:29:30;;;;;;;29.73;15.15;;;2.50;99.90;;;;;;5080816;28;20032;-43
2023/01/20 05:31:58;;;;;;;29.77;15.43;;;2.50;99.90;;;;;;5080183;28;20043;-43
2023/01/20 05:34:24;;;;;;;30.10;16.80;;;2.50;99.90;;;;;;5080478;28;20065;-42
2023/01/20 05:36:53;;;;;;;30.00;16.35;;;2.50;99.90;;;;;;5080482;28;20036;-44
2023/01/20 05:39:19;;;;;;;28.67;16.40;;;2.60;99.90;;;;;;5079829;28;20838;-43
2023/01/20 05:41:45;;;;;;;30.98;17.50;;;2.60;99.90;;;;;;5081030;28;20040;-43
2023/01/20 05:44:11;;;;;;;32.67;17.75;;;2.50;99.90;;;;;;5079928;28;20024;-44
2023/01/20 05:46:37;;;;;;;30.30;16.95;;;2.50;99.90;;;;;;5080443;28;20039;-43
2023/01/20 05:49:02;;;;;;;35.17;18.80;;;2.50;99.90;;;;;;5080083;28;20020;-43
2023/01/20 05:51:28;;;;;;;35.13;18.23;;;2.50;99.90;;;;;;5080799;28;20032;-42
2023/01/20 05:53:53;;;;;;;33.83;19.88;;;2.40;99.90;;;;;;5079857;28;20081;-42
2023/01/20 05:56:19;;;;;;;40.75;20.55;;;2.40;99.90;;;;;;5079596;28;20032;-42
2023/01/20 05:58:44;;;;;;;33.60;18.25;;;2.40;99.90;;;;;;5081146;28;20032;-43
2023/01/20 06:01:12;;;;;;;36.10;18.48;;;2.30;99.90;;;;;;5080314;28;20040;-42
2023/01/20 06:03:38;;;;;;;34.25;18.80;;;2.30;99.90;;;;;;5080957;28;20035;-44
2023/01/20 06:06:06;;;;;;;36.25;20.30;;;2.30;99.90;;;;;;5079314;28;20031;-42
2023/01/20 06:08:32;;;;;;;37.75;19.67;;;2.30;99.90;;;;;;5080641;28;20562;-43
2023/01/20 06:10:58;;;;;;;32.60;17.60;;;2.20;99.90;;;;;;5079602;28;20053;-43
2023/01/20 06:13:23;;;;;;;31.35;16.58;;;2.20;99.90;;;;;;5080235;28;20137;-43
2023/01/20 06:15:53;;;;;;;32.47;16.38;;;2.30;99.90;;;;;;5080466;28;20391;-43
2023/01/20 06:18:23;;;;;;;30.30;17.05;;;2.30;99.90;;;;;;5079833;28;20059;-41
2023/01/20 06:20:48;;;;;;;33.50;17.52;;;2.30;99.90;;;;;;5080051;28;20016;-43
2023/01/20 06:23:14;;;;;;;34.90;18.67;;;2.30;99.90;;;;;;5080529;28;20395;-43
2023/01/20 06:25:40;;;;;;;30.98;17.77;;;2.30;99.90;;;;;;5080614;28;20051;-43
2023/01/20 06:28:06;;;;;;;32.30;17.35;;;2.30;99.90;;;;;;5079130;28;20541;-42
2023/01/20 06:30:32;;;;;;;31.77;17.20;;;2.30;99.90;;;;;;5080123;28;20028;-42
2023/01/20 06:32:58;;;;;;;34.60;18.77;;;2.30;99.90;;;;;;5079830;28;20043;-43
2023/01/20 06:35:24;;;;;;;30.27;17.25;;;2.30;99.90;;;;;;5079703;28;20044;-43
2023/01/20 06:37:49;;;;;;;31.83;17.15;;;2.30;99.90;;;;;;5080798;28;20032;-42
2023/01/20 06:40:15;;;;;;;30.92;16.73;;;2.30;99.90;;;;;;5080313;28;20710;-42
2023/01/20 06:42:41;;;;;;;33.15;18.65;;;2.30;99.90;;;;;;5079693;28;20110;-43
2023/01/20 06:45:10;;;;;;;33.58;18.17;;;2.30;99.90;;;;;;5079986;28;20295;-42
2023/01/20 06:47:35;;;;;;;30.10;17.33;;;2.30;99.90;;;;;;5082126;28;20036;-43
2023/01/20 06:50:01;;;;;;;34.92;18.42;;;2.30;99.90;;;;;;5082951;28;20383;-43
2023/01/20 06:52:27;;;;;;;30.73;16.75;;;2.30;99.90;;;;;;5084485;28;20509;-41
2023/01/20 06:54:52;;;;;;;33.85;17.55;;;2.30;99.90;;;;;;5083890;28;20032;-42
2023/01/20 06:57:18;;;;;;;32.22;18.05;;;2.30;99.90;;;;;;5082295;28;20015;-43
2023/01/20 06:59:44;;;;;;;35.53;19.13;;;2.30;99.90;;;;;;5083656;28;20454;-43
2023/01/20 07:02:12;;;;;;;34.95;19.20;;;2.30;99.90;;;;;;5082111;28;20024;-43
2023/01/20 07:04:38;;;;;;;36.10;19.98;;;2.30;99.90;;;;;;5083673;28;20153;-43
2023/01/20 07:07:04;;;;;;;36.25;19.83;;;2.30;99.90;;;;;;5082498;28;20065;-43
2023/01/20 07:09:29;;;;;;;34.13;19.42;;;2.30;99.90;;;;;;5081524;28;20032;-42
2023/01/20 07:11:55;;;;;;;34.67;19.88;;;2.30;99.90;;;;;;5082174;28;20031;-43
2023/01/20 07:14:21;;;;;;;34.90;19.45;;;2.30;99.90;;;;;;5082085;28;20054;-43
2023/01/20 07:16:46;;;;;;;34.38;19.17;;;2.30;99.90;;;;;;5082068;28;20020;-44
2023/01/20 07:19:12;;;;;;;36.08;18.45;;;2.30;99.90;;;;;;5081530;28;20020;-44
2023/01/20 07:21:38;;;;;;;33.78;16.92;;;2.30;99.90;;;;;;5082123;28;20066;-43
2023/01/20 07:24:04;;;;;;;37.65;20.05;;;2.30;99.90;;;;;;5081766;28;20012;-43
2023/01/20 07:26:30;;;;;;;36.47;21.13;;;2.30;99.90;;;;;;5082724;28;20050;-43
2023/01/20 07:29:02;;;;;;;36.22;21.25;;;2.30;99.90;;;;;;5083696;28;20028;-43
2023/01/20 07:31:30;;;;;;;40.45;20.77;;;2.30;99.90;;;;;;5082994;28;20101;-44
2023/01/20 07:33:56;;;;;;;36.75;20.55;;;2.30;99.90;;;;;;5082209;28;20048;-43
2023/01/20 07:36:22;;;;;;;35.38;21.02;;;2.30;99.90;;;;;;5083158;28;20043;-44
2023/01/20 07:38:49;;;;;;;37.90;19.70;;;2.20;99.90;;;;;;5083138;28;20035;-44
2023/01/20 07:41:15;;;;;;;33.00;19.40;;;2.30;99.90;;;;;;5082636;28;20028;-43
2023/01/20 07:43:42;;;;;;;37.55;19.85;;;2.30;99.90;;;;;;5082958;28;20381;-43
2023/01/20 07:46:08;;;;;;;38.40;21.48;;;2.30;99.90;;;;;;5081858;28;20032;-42
2023/01/20 07:48:33;;;;;;;38.35;20.42;;;2.30;99.90;;;;;;5082357;28;20036;-42
2023/01/20 07:51:04;;;;;;;39.75;20.95;;;2.40;99.90;;;;;;5082174;28;20028;-42
2023/01/20 07:53:31;;;;;;;40.72;21.48;;;2.40;99.90;;;;;;5082280;28;20139;-43
2023/01/20 07:56:15;;;;;;;40.83;22.02;;;2.40;99.90;;;;;;5081648;28;20115;-43
2023/01/20 07:58:43;;;;;;;34.63;19.05;;;2.40;99.90;;;;;;5080710;28;20035;-43
2023/01/20 08:01:13;;;;;;;32.53;18.70;;;2.40;99.90;;;;;;5081916;28;20024;-44
2023/01/20 08:03:38;;;;;;;31.90;17.85;;;2.40;99.90;;;;;;5082678;28;20139;-43
2023/01/20 08:06:06;;;;;;;31.70;18.40;;;2.40;99.90;;;;;;5081394;28;20028;-43
2023/01/20 08:08:33;;;;;;;30.95;17.70;;;2.50;99.90;;;;;;5081934;28;20483;-41
2023/01/20 08:11:00;;;;;;;35.25;19.25;;;2.50;99.90;;;;;;5081635;28;20113;-43
2023/01/20 08:13:26;;;;;;;35.03;19.67;;;2.50;99.90;;;;;;5082190;28;20063;-43
2023/01/20 08:15:52;;;;;;;34.25;18.45;;;2.50;99.90;;;;;;5082502;28;20099;-44
2023/01/20 08:18:18;;;;;;;34.92;18.17;;;2.50;99.90;;;;;;5081805;28;20565;-43
2023/01/20 08:20:43;;;;;;;34.90;19.23;;;2.50;99.90;;;;;;5081802;28;20028;-43
2023/01/20 08:23:09;;;;;;;34.50;18.73;;;2.50;99.90;;;;;;5081665;28;20036;-42
2023/01/20 08:25:34;;;;;;;36.58;20.30;;;2.50;99.90;;;;;;5082070;28;20042;-43
2023/01/20 08:28:00;;;;;;;40.60;21.48;;;2.50;99.90;;;;;;5080431;28;20047;-43
2023/01/20 08:30:25;;;;;;;39.67;21.10;;;2.50;99.90;;;;;;5081402;28;20024;-43
2023/01/20 08:32:51;;;;;;;35.65;21.17;;;2.50;99.90;;;;;;5081854;28;20356;-43
2023/01/20 08:35:17;;;;;;;37.75;20.92;;;2.50;99.90;;;;;;5080028;28;20391;-42
2023/01/20 08:37:42;;;;;;;37.83;20.40;;;2.50;99.90;;;;;;5081519;28;20024;-42
2023/01/20 08:40:09;;;;;;;37.45;21.00;;;2.50;99.90;;;;;;5080840;28;20020;-43
2023/01/20 08:42:36;;;;;;;38.47;22.00;;;2.60;99.90;;;;;;5081520;28;20032;-43
2023/01/20 08:45:03;;;;;;;42.58;22.42;;;2.60;99.90;;;;;;5081161;28;20028;-44
2023/01/20 08:47:29;;;;;;;39.13;21.65;;;2.60;99.90;;;;;;5081664;28;20480;-43
2023/01/20 08:49:54;;;;;;;40.63;22.45;;;2.50;99.90;;;;;;5081005;28;20062;-43
2023/01/20 08:52:20;;;;;;;38.40;21.42;;;2.60;99.90;;;;;;5080775;28;20023;-43
2023/01/20 08:54:46;;;;;;;38.80;20.75;;;2.60;99.90;;;;;;5081042;28;20020;-44
2023/01/20 08:57:11;;;;;;;37.95;21.88;;;2.60;99.90;;;;;;5080122;28;20050;-42
2023/01/20 08:59:37;;;;;;;39.50;21.52;;;2.60;99.90;;;;;;5081855;28;20024;-43
2023/01/20 09:02:02;;;;;;;36.08;20.63;;;2.60;99.90;;;;;;5080025;28;20039;-43
2023/01/20 09:04:29;;;;;;;36.78;20.52;;;2.60;99.90;;;;;;5081890;28;20028;-43
2023/01/20 09:06:55;;;;;;;33.83;19.02;;;2.60;99.90;;;;;;5082164;28;20093;-44
2023/01/20 09:09:21;;;;;;;36.22;19.33;;;2.60;99.90;;;;;;5079988;28;20032;-43
2023/01/20 09:11:50;;;;;;;32.65;18.63;;;2.60;99.90;;;;;;5080972;28;20119;-43
2023/01/20 09:14:17;;;;;;;31.40;17.83;;;2.70;99.90;;;;;;5081041;28;20020;-43
2023/01/20 09:16:43;;;;;;;31.20;17.40;;;2.70;99.90;;;;;;5081258;28;20024;-43
2023/01/20 09:19:09;;;;;;;32.35;17.70;;;2.70;99.90;;;;;;5080396;28;20031;-44
2023/01/20 09:21:34;;;;;;;34.28;19.08;;;2.70;99.90;;;;;;5080369;28;20577;-43
2023/01/20 09:24:00;;;;;;;31.77;18.70;;;2.70;99.90;;;;;;5079832;28;20494;-42
2023/01/20 09:26:26;;;;;;;31.85;17.83;;;2.70;99.90;;;;;;5079322;28;20046;-43
2023/01/20 09:28:51;;;;;;;31.77;17.85;;;2.70;99.90;;;;;;5081302;28;20536;-44
2023/01/20 09:31:17;;;;;;;30.98;19.63;;;2.70;99.90;;;;;;5079823;28;20035;-43
2023/01/20 09:33:42;;;;;;;34.65;20.17;;;2.80;99.90;;;;;;5080889;28;20536;-43
2023/01/20 09:36:10;;;;;;;31.85;18.38;;;2.70;99.90;;;;;;5080047;28;20688;-43
2023/01/20 09:44:45;;;;;;;34.72;19.10;;;2.70;99.90;;;;;;5079564;28;20042;-43
2023/01/20 09:47:33;;;;;;;37.20;21.33;;;2.70;99.90;;;;;;5079286;28;20040;-43
2023/01/20 09:53:38;;;;;;;35.55;18.67;;;2.70;99.90;;;;;;5080569;28;20061;-42
2023/01/20 09:56:16;;;;;;;31.88;18.00;;;2.80;99.90;;;;;;5060717;28;20119;-43
2023/01/20 09:58:45;;;;;;;32.58;17.77;;;2.80;99.90;;;;;;5078763;28;20040;-43
2023/01/20 10:01:23;;;;;;;28.15;16.20;;;2.80;99.90;;;;;;5059689;28;20068;-44
2023/01/20 10:04:03;;;;;;;34.42;17.50;;;2.80;99.90;;;;;;5076400;28;20047;-43
2023/01/20 10:06:49;;;;;;;31.33;17.95;;;2.80;99.90;;;;;;5060928;28;20124;-44
2023/01/20 10:09:27;;;;;;;29.77;17.98;;;2.80;99.90;;;;;;5078630;28;20141;-44
2023/01/20 10:12:00;;;;;;;25.95;15.88;;;2.90;99.90;;;;;;5080268;28;20024;-44
2023/01/20 10:14:41;;;;;;;27.85;16.95;;;2.90;99.90;;;;;;5080214;28;20032;-44
2023/01/20 10:17:20;;;;;;;28.73;17.15;;;2.90;99.90;;;;;;5079455;28;20027;-44
2023/01/20 10:20:02;;;;;;;29.85;17.40;;;2.90;99.90;;;;;;5079604;28;20028;-44
2023/01/20 10:22:43;;;;;;;30.80;18.00;;;2.90;99.90;;;;;;5083114;28;20127;-43
2023/01/20 10:25:16;;;;;;;31.50;17.55;;;2.90;99.90;;;;;;5083979;28;20024;-44
2023/01/20 10:27:51;;;;;;;34.13;19.20;;;2.90;99.90;;;;;;5083907;28;20043;-44
2023/01/20 10:30:20;;;;;;;30.30;18.02;;;2.90;99.90;;;;;;5083613;28;20353;-44
2023/01/20 10:32:59;;;;;;;35.80;19.13;;;2.90;99.90;;;;;;5083157;28;20074;-44
2023/01/20 10:35:28;;;;;;;31.55;18.85;;;2.90;99.90;;;;;;5082539;28;20253;-43
2023/01/20 10:37:54;;;;;;;34.33;19.88;;;3.00;99.90;;;;;;5084224;28;20535;-44
2023/01/20 10:40:39;;;;;;;34.28;19.40;;;2.90;99.90;;;;;;5082568;28;20499;-43
2023/01/20 10:43:13;;;;;;;28.90;17.55;;;2.90;99.90;;;;;;5083104;28;20032;-44
2023/01/20 10:45:56;;;;;;;31.92;19.15;;;3.00;99.90;;;;;;5084671;28;20024;-44
2023/01/20 10:48:38;;;;;;;33.95;19.45;;;3.00;99.90;;;;;;5082684;28;20093;-43
2023/01/20 10:51:12;;;;;;;32.97;19.08;;;3.00;99.90;;;;;;5080077;28;20071;-43
2023/01/20 10:53:49;;;;;;;33.45;18.85;;;3.00;99.90;;;;;;5084707;28;20722;-44
2023/01/20 10:56:28;;;;;;;33.17;19.60;;;3.00;99.90;;;;;;5079316;28;20086;-44
2023/01/20 10:58:59;;;;;;;30.13;18.45;;;3.10;99.90;;;;;;5084028;28;20051;-43
2023/01/20 11:01:25;;;;;;;31.50;18.92;;;3.10;99.90;;;;;;5079547;28;20047;-46
2023/01/20 11:03:50;;;;;;;29.92;17.85;;;3.10;99.90;;;;;;5084466;28;20784;-43
2023/01/20 11:06:19;;;;;;;32.35;18.83;;;3.10;99.90;;;;;;5082873;28;20475;-43
2023/01/20 11:08:45;;;;;;;29.13;18.35;;;3.20;99.90;;;;;;5083112;28;20032;-44
2023/01/20 11:11:18;;;;;;;29.15;17.85;;;3.20;99.90;;;;;;5083226;28;20031;-43
2023/01/20 11:13:44;;;;;;;26.20;16.17;;;3.20;99.90;;;;;;5084478;28;20036;-43
2023/01/20 11:16:15;;;;;;;24.30;15.73;;;3.20;99.90;;;;;;5082118;28;20066;-44
2023/01/20 11:18:41;;;;;;;23.50;14.98;;;3.30;99.90;;;;;;5084046;28;20099;-43
2023/01/20 11:21:10;;;;;;;25.48;15.90;;;3.30;99.90;;;;;;5083233;28;20157;-43
2023/01/20 11:23:56;;;;;;;26.95;17.17;;;3.30;99.90;;;;;;5082347;28;20553;-43
2023/01/20 11:26:21;;;;;;;27.25;18.05;;;3.30;99.90;;;;;;5082995;28;20145;-43
2023/01/20 11:28:56;;;;;;;26.45;17.00;;;3.40;99.90;;;;;;5083075;28;20625;-43
2023/01/20 11:31:41;;;;;;;25.40;16.77;;;3.40;99.90;;;;;;5081865;28;20034;-43
2023/01/20 11:34:21;;;;;;;29.10;18.20;;;3.50;99.90;;;;;;5081030;28;20048;-44
2023/01/20 11:36:48;;;;;;;21.23;14.93;;;3.50;99.90;;;;;;5082787;28;20197;-43
2023/01/20 11:39:43;;;;;;;26.65;17.33;;;3.50;99.90;;;;;;5082691;28;20035;-44
2023/01/20 11:42:16;;;;;;;25.52;16.77;;;3.50;99.90;;;;;;5082017;28;20024;-45
2023/01/20 11:44:50;;;;;;;23.95;16.58;;;3.50;99.90;;;;;;5082563;28;20850;-44
2023/01/20 11:47:35;;;;;;;26.70;16.70;;;3.50;99.90;;;;;;5081488;28;20101;-43
2023/01/20 11:50:03;;;;;;;23.05;15.93;;;3.50;99.90;;;;;;5061760;28;20024;-44
2023/01/20 11:52:32;;;;;;;24.15;15.70;;;3.50;99.90;;;;;;5078031;28;20028;-44
2023/01/20 11:55:07;;;;;;;24.13;16.08;;;3.60;99.90;;;;;;5062602;28;20029;-44
2023/01/20 11:57:33;;;;;;;23.55;15.60;;;3.60;99.90;;;;;;5076190;28;20479;-43
2023/01/20 11:59:59;;;;;;;22.05;14.32;;;3.50;99.90;;;;;;5083110;28;20115;-44
2023/01/20 12:02:27;;;;;;;21.52;14.80;;;3.60;99.90;;;;;;5081893;28;20024;-44
2023/01/20 12:05:02;;;;;;;23.85;17.27;;;3.60;99.90;;;;;;5082138;28;20028;-45
2023/01/20 12:07:34;;;;;;;23.02;16.17;;;3.60;99.90;;;;;;5082689;28;20127;-44
2023/01/20 12:10:13;;;;;;;24.80;16.58;;;3.60;99.90;;;;;;5082038;28;20060;-44
2023/01/20 12:12:46;;;;;;;21.92;15.95;;;3.60;99.90;;;;;;5081657;28;20039;-44
2023/01/20 12:15:22;;;;;;;23.95;15.25;;;3.60;99.90;;;;;;5081682;28;20510;-44
2023/01/20 12:17:48;;;;;;;20.70;14.70;;;3.60;99.90;;;;;;5082665;28;20051;-44
2023/01/20 12:20:36;;;;;;;20.05;14.07;;;3.60;99.90;;;;;;5081324;28;20467;-44
2023/01/20 12:23:45;;;;;;;20.45;13.90;;;3.60;99.90;;;;;;5082147;28;20142;-44
2023/01/20 12:26:20;;;;;;;19.52;13.55;;;3.70;99.90;;;;;;5049353;28;20458;-43
2023/01/20 12:29:07;;;;;;;18.95;13.40;;;3.70;99.90;;;;;;5079060;28;20166;-43
2023/01/20 12:31:33;;;;;;;19.00;13.15;;;3.70;99.90;;;;;;5081909;28;20076;-43
2023/01/20 12:34:10;;;;;;;17.73;12.57;;;3.70;99.90;;;;;;5080893;28;20047;-44
2023/01/20 12:37:07;;;;;;;18.42;13.27;;;3.70;99.90;;;;;;5082582;28;20116;-44
2023/01/20 12:39:45;;;;;;;17.77;12.52;;;3.60;99.90;;;;;;5080461;28;20566;-44
2023/01/20 12:42:38;;;;;;;16.92;11.95;;;3.60;99.90;;;;;;5081104;28;20020;-44
2023/01/20 12:45:14;;;;;;;15.65;11.40;;;3.60;99.90;;;;;;5081093;28;20376;-44
2023/01/20 12:48:06;;;;;;;15.90;11.75;;;3.60;99.90;;;;;;5081317;28;20446;-44
2023/01/20 12:50:47;;;;;;;15.27;10.82;;;3.60;99.90;;;;;;5075404;28;20031;-43
2023/01/20 12:53:37;;;;;;;16.35;11.57;;;3.70;99.90;;;;;;5080803;28;20032;-42
2023/01/20 12:56:29;;;;;;;15.30;11.23;;;3.70;99.90;;;;;;5080498;28;20511;-42
2023/01/20 12:59:31;;;;;;;14.48;10.90;;;3.70;99.90;;;;;;5081133;28;20027;-44
2023/01/20 13:02:15;;;;;;;14.98;10.35;;;3.80;99.90;;;;;;5080376;28;20711;-43
2023/01/20 13:05:08;;;;;;;14.63;10.88;;;3.80;99.90;;;;;;5081441;28;20028;-44